createdAt,value
2022-12-10T00:00:19.853Z,42.67
2022-12-10T00:01:24.378Z,43.33
2022-12-10T00:02:26.521Z,44.03
2022-12-10T00:03:29.682Z,45.55
2022-12-10T00:04:32.828Z,42.97
2022-12-10T00:05:37.095Z,46.63
2022-12-10T00:06:40.842Z,48.70
2022-12-10T00:07:43.012Z,42.78
2022-12-10T00:08:46.554Z,45.08
2022-12-10T00:09:49.042Z,41.67
2022-12-10T00:10:52.257Z,42.83
2022-12-10T00:11:55.486Z,42.03
2022-12-10T00:12:57.669Z,42.03
2022-12-10T00:14:01.491Z,43.38
2022-12-10T00:15:03.998Z,44.35
2022-12-10T00:16:09.643Z,42.47
2022-12-10T00:17:13.188Z,42.05
2022-12-10T00:18:16.685Z,43.60
2022-12-10T00:19:18.784Z,39.40
2022-12-10T00:20:22.056Z,42.85
2022-12-10T00:21:28.560Z,42.42
2022-12-10T00:22:31.791Z,45.33
2022-12-10T00:23:34.580Z,41.15
2022-12-10T00:24:37.815Z,41.65
2022-12-10T00:25:40.040Z,41.33
2022-12-10T00:26:43.717Z,42.40
2022-12-10T00:27:46.468Z,42.58
2022-12-10T00:28:54.333Z,42.67
2022-12-10T00:29:56.528Z,44.70
2022-12-10T00:31:05.072Z,41.90
2022-12-10T00:32:08.418Z,45.92
2022-12-10T00:33:10.800Z,49.85
2022-12-10T00:34:14.949Z,48.35
2022-12-10T00:35:17.234Z,49.90
2022-12-10T00:36:22.902Z,50.45
2022-12-10T00:37:28.758Z,50.28
2022-12-10T00:38:32.043Z,49.75
2022-12-10T00:39:34.168Z,51.17
2022-12-10T00:40:37.381Z,54.83
2022-12-10T00:41:39.471Z,52.40
2022-12-10T00:42:42.486Z,42.22
2022-12-10T00:43:45.140Z,40.67
2022-12-10T00:44:48.262Z,44.97
2022-12-10T00:45:50.507Z,45.88
2022-12-10T00:46:53.610Z,47.20
2022-12-10T00:47:55.762Z,50.33
2022-12-10T00:49:00.310Z,50.83
2022-12-10T00:50:02.495Z,54.05
2022-12-10T00:51:07.854Z,51.30
2022-12-10T00:52:10.866Z,52.13
2022-12-10T00:53:15.509Z,57.08
2022-12-10T00:54:18.580Z,49.22
2022-12-10T00:55:20.641Z,57.60
2022-12-10T00:56:25.869Z,58.50
2022-12-10T00:57:27.896Z,53.17
2022-12-10T00:58:32.710Z,58.00
2022-12-10T00:59:36.029Z,56.05
2022-12-10T01:00:38.135Z,57.42
2022-12-10T01:01:43.488Z,49.47
2022-12-10T01:02:45.594Z,51.15
2022-12-10T01:03:50.993Z,48.63
2022-12-10T01:04:54.108Z,52.35
2022-12-10T01:05:57.216Z,52.58
2022-12-10T01:07:01.091Z,50.72
2022-12-10T01:08:04.988Z,50.35
2022-12-10T01:09:12.263Z,55.03
2022-12-10T01:10:14.378Z,50.85
2022-12-10T01:11:20.536Z,50.72
2022-12-10T01:12:22.604Z,52.28
2022-12-10T01:13:25.646Z,47.47
2022-12-10T01:14:30.378Z,48.28
2022-12-10T01:15:33.523Z,48.70
2022-12-10T01:16:36.183Z,44.75
2022-12-10T01:17:39.361Z,50.38
2022-12-10T01:18:42.240Z,44.88
2022-12-10T01:19:45.381Z,43.97
2022-12-10T01:20:47.473Z,51.67
2022-12-10T01:21:52.489Z,47.20
2022-12-10T01:22:54.622Z,44.47
2022-12-10T01:23:59.236Z,46.67
2022-12-10T01:25:03.763Z,44.22
2022-12-10T01:26:09.235Z,39.83
2022-12-10T01:27:11.419Z,41.40
2022-12-10T01:28:14.778Z,40.63
2022-12-10T01:29:17.647Z,45.08
2022-12-10T01:30:20.708Z,45.72
2022-12-10T01:31:25.972Z,43.40
2022-12-10T01:32:29.057Z,46.20
2022-12-10T01:33:31.452Z,42.50
2022-12-10T01:34:35.686Z,40.08
2022-12-10T01:35:37.937Z,42.85
2022-12-10T01:36:43.420Z,37.20
2022-12-10T01:37:46.867Z,36.13
2022-12-10T01:38:50.873Z,39.05
2022-12-10T01:39:53.079Z,38.80
2022-12-10T01:40:57.571Z,38.90
2022-12-10T01:42:02.460Z,40.45
2022-12-10T01:43:05.317Z,41.03
2022-12-10T01:44:41.700Z,42.65
2022-12-10T01:45:44.866Z,39.42
2022-12-10T01:46:48.546Z,41.17
2022-12-10T01:47:51.651Z,43.85
2022-12-10T01:48:54.195Z,44.92
2022-12-10T01:49:58.992Z,44.20
2022-12-10T01:51:01.208Z,43.63
2022-12-10T01:52:06.891Z,44.80
2022-12-10T01:53:09.786Z,44.40
2022-12-10T01:54:15.147Z,45.65
2022-12-10T01:55:41.245Z,42.45
2022-12-10T01:56:47.950Z,40.22
2022-12-10T01:57:50.079Z,42.70
2022-12-10T01:58:56.540Z,39.22
2022-12-10T02:00:02.121Z,39.95
2022-12-10T02:01:12.192Z,42.25
2022-12-10T02:02:21.920Z,39.60
2022-12-10T02:03:34.544Z,38.95
2022-12-10T02:04:47.178Z,30.80
2022-12-10T02:06:00.227Z,34.85
2022-12-10T02:07:07.431Z,31.98
2022-12-10T02:08:20.436Z,34.13
2022-12-10T02:09:28.988Z,36.22
2022-12-10T02:10:44.630Z,32.22
2022-12-10T02:12:00.496Z,28.88
2022-12-10T02:13:08.880Z,30.75
2022-12-10T02:14:17.232Z,29.92
2022-12-10T02:15:24.549Z,33.35
2022-12-10T02:16:41.748Z,28.60
2022-12-10T02:17:51.179Z,26.63
2022-12-10T02:19:01.905Z,29.42
2022-12-10T02:21:17.969Z,29.70
2022-12-10T02:22:23.244Z,27.67
2022-12-10T02:23:29.235Z,27.00
2022-12-10T02:24:37.099Z,26.58
2022-12-10T02:25:48.802Z,28.35
2022-12-10T02:26:57.966Z,25.08
2022-12-10T02:28:16.239Z,26.92
2022-12-10T02:29:25.675Z,30.20
2022-12-10T02:30:32.036Z,28.60
2022-12-10T02:31:36.055Z,30.13
2022-12-10T02:32:42.684Z,28.98
2022-12-10T02:33:50.808Z,28.17
2022-12-10T02:34:57.664Z,27.80
2022-12-10T02:36:01.078Z,28.40
2022-12-10T02:37:08.601Z,28.95
2022-12-10T02:38:17.823Z,29.17
2022-12-10T02:39:27.339Z,28.33
2022-12-10T02:40:36.128Z,27.50
2022-12-10T02:41:44.672Z,27.50
2022-12-10T02:42:49.520Z,27.02
2022-12-10T02:43:56.079Z,28.17
2022-12-10T02:45:02.526Z,27.73
2022-12-10T02:46:08.143Z,27.38
2022-12-10T02:47:13.644Z,27.60
2022-12-10T02:48:21.543Z,23.98
2022-12-10T02:49:26.466Z,24.00
2022-12-10T02:50:29.739Z,23.77
2022-12-10T02:51:31.788Z,24.80
2022-12-10T02:52:35.286Z,26.02
2022-12-10T02:53:42.744Z,25.13
2022-12-10T02:54:47.624Z,27.30
2022-12-10T02:56:03.908Z,23.27
2022-12-10T02:57:24.701Z,23.08
2022-12-10T02:58:36.308Z,25.55
2022-12-10T02:59:49.135Z,21.17
2022-12-10T03:01:01.126Z,22.40
2022-12-10T03:02:10.979Z,25.10
2022-12-10T03:03:34.161Z,22.15
2022-12-10T03:04:46.047Z,20.85
2022-12-10T03:05:57.761Z,22.13
2022-12-10T03:07:03.701Z,18.13
2022-12-10T03:08:14.234Z,21.48
2022-12-10T03:09:22.040Z,19.10
2022-12-10T03:10:29.392Z,20.40
2022-12-10T03:11:31.930Z,18.98
2022-12-10T03:12:39.812Z,24.27
2022-12-10T03:13:57.798Z,20.15
2022-12-10T03:15:03.502Z,20.00
2022-12-10T03:16:08.909Z,20.33
2022-12-10T03:17:11.327Z,23.65
2022-12-10T03:18:17.811Z,20.58
2022-12-10T03:19:25.169Z,21.17
2022-12-10T03:20:29.267Z,22.00
2022-12-10T03:21:34.006Z,22.35
2022-12-10T03:22:47.207Z,21.48
2022-12-10T03:23:51.010Z,22.80
2022-12-10T03:24:55.260Z,21.65
2022-12-10T03:25:57.444Z,21.75
2022-12-10T03:27:00.615Z,19.67
2022-12-10T03:28:02.811Z,24.92
2022-12-10T03:29:10.165Z,22.45
2022-12-10T03:30:12.777Z,21.67
2022-12-10T03:31:19.043Z,24.95
2022-12-10T03:32:23.268Z,20.83
2022-12-10T03:33:26.521Z,25.15
2022-12-10T03:34:29.432Z,20.95
2022-12-10T03:35:34.032Z,20.60
2022-12-10T03:36:37.798Z,24.17
2022-12-10T03:37:41.493Z,20.80
2022-12-10T03:38:44.524Z,21.67
2022-12-10T03:39:48.092Z,22.83
2022-12-10T03:40:50.223Z,20.90
2022-12-10T03:41:53.386Z,22.70
2022-12-10T03:42:55.459Z,20.90
2022-12-10T03:44:00.788Z,20.60
2022-12-10T03:45:03.001Z,20.73
2022-12-10T03:46:06.881Z,20.85
2022-12-10T03:47:15.426Z,19.02
2022-12-10T03:48:18.530Z,19.15
2022-12-10T03:49:20.559Z,21.52
2022-12-10T03:50:23.746Z,20.58
2022-12-10T03:51:25.933Z,19.42
2022-12-10T03:52:29.091Z,19.70
2022-12-10T03:53:31.517Z,21.95
2022-12-10T03:54:34.652Z,20.23
2022-12-10T03:55:36.679Z,19.13
2022-12-10T03:56:40.138Z,19.20
2022-12-10T03:57:43.009Z,18.27
2022-12-10T03:58:46.369Z,17.52
2022-12-10T03:59:48.964Z,18.75
2022-12-10T04:00:52.557Z,18.55
2022-12-10T04:01:54.764Z,18.90
2022-12-10T04:02:59.595Z,18.52
2022-12-10T04:04:04.138Z,20.02
2022-12-10T04:05:08.696Z,20.25
2022-12-10T04:06:15.628Z,18.58
2022-12-10T04:07:18.756Z,18.23
2022-12-10T04:08:20.987Z,18.55
2022-12-10T04:09:24.141Z,19.80
2022-12-10T04:10:26.254Z,17.98
2022-12-10T04:11:29.400Z,19.13
2022-12-10T04:12:32.572Z,18.55
2022-12-10T04:13:54.485Z,18.45
2022-12-10T04:15:15.145Z,16.58
2022-12-10T04:16:29.392Z,18.73
2022-12-10T04:17:34.410Z,18.45
2022-12-10T04:18:37.969Z,19.08
2022-12-10T04:19:41.233Z,18.17
2022-12-10T04:21:01.906Z,19.35
2022-12-10T04:22:22.459Z,17.83
2022-12-10T04:23:43.224Z,17.23
2022-12-10T04:26:28.670Z,16.58
2022-12-10T04:27:34.823Z,18.27
2022-12-10T04:28:36.964Z,18.00
2022-12-10T04:29:40.634Z,17.80
2022-12-10T04:30:42.783Z,18.23
2022-12-10T04:31:45.928Z,18.08
2022-12-10T04:32:48.054Z,18.08
2022-12-10T04:33:52.546Z,18.95
2022-12-10T04:34:54.820Z,17.15
2022-12-10T04:35:58.039Z,17.80
2022-12-10T04:37:01.833Z,19.90
2022-12-10T04:38:04.879Z,19.73
2022-12-10T04:39:06.914Z,21.90
2022-12-10T04:40:11.885Z,18.90
2022-12-10T04:41:16.385Z,19.05
2022-12-10T04:42:20.272Z,22.35
2022-12-10T04:43:22.304Z,22.00
2022-12-10T04:44:25.449Z,21.58
2022-12-10T04:45:28.338Z,19.63
2022-12-10T04:46:31.609Z,19.95
2022-12-10T04:47:33.722Z,21.95
2022-12-10T04:48:36.798Z,17.05
2022-12-10T04:49:40.693Z,19.90
2022-12-10T04:50:43.804Z,19.52
2022-12-10T04:51:46.446Z,20.58
2022-12-10T04:52:49.500Z,18.30
2022-12-10T04:53:51.618Z,17.13
2022-12-10T04:54:54.724Z,19.02
2022-12-10T04:55:56.914Z,22.77
2022-12-10T04:57:00.152Z,18.75
2022-12-10T04:58:03.033Z,20.55
2022-12-10T04:59:06.619Z,18.52
2022-12-10T05:00:10.204Z,15.95
2022-12-10T05:01:15.066Z,17.98
2022-12-10T05:02:17.222Z,15.60
2022-12-10T05:03:20.437Z,18.65
2022-12-10T05:04:22.682Z,15.40
2022-12-10T05:05:27.864Z,16.70
2022-12-10T05:06:30.601Z,15.90
2022-12-10T05:07:35.009Z,17.20
2022-12-10T05:08:38.154Z,18.35
2022-12-10T05:09:41.301Z,18.58
2022-12-10T05:10:43.374Z,17.65
2022-12-10T05:11:46.567Z,15.25
2022-12-10T05:12:48.643Z,17.20
2022-12-10T05:13:52.024Z,16.90
2022-12-10T05:14:54.079Z,19.13
2022-12-10T05:15:57.213Z,16.90
2022-12-10T05:16:59.348Z,14.52
2022-12-10T05:18:02.429Z,17.60
2022-12-10T05:19:04.546Z,15.90
2022-12-10T05:20:09.375Z,16.27
2022-12-10T05:21:15.758Z,16.00
2022-12-10T05:22:36.419Z,15.23
2022-12-10T05:23:40.583Z,15.63
2022-12-10T05:24:43.633Z,16.40
2022-12-10T05:25:53.945Z,15.13
2022-12-10T05:26:59.110Z,16.83
2022-12-10T05:28:01.224Z,15.93
2022-12-10T05:29:04.376Z,13.88
2022-12-10T05:30:08.236Z,15.20
2022-12-10T05:31:14.379Z,16.55
2022-12-10T05:32:16.454Z,13.98
2022-12-10T05:33:19.630Z,16.92
2022-12-10T05:34:21.821Z,14.77
2022-12-10T05:35:24.869Z,15.98
2022-12-10T05:36:30.101Z,15.88
2022-12-10T05:37:33.310Z,16.45
2022-12-10T05:38:35.782Z,17.52
2022-12-10T05:39:38.836Z,19.42
2022-12-10T05:40:41.046Z,17.40
2022-12-10T05:41:44.981Z,18.75
2022-12-10T05:42:47.576Z,18.00
2022-12-10T05:43:51.211Z,16.70
2022-12-10T05:44:53.314Z,18.27
2022-12-10T05:45:56.405Z,17.48
2022-12-10T05:46:58.572Z,18.33
2022-12-10T05:48:01.944Z,20.80
2022-12-10T05:49:06.293Z,16.33
2022-12-10T05:50:10.346Z,20.65
2022-12-10T05:51:14.774Z,17.25
2022-12-10T05:52:19.276Z,16.35
2022-12-10T05:53:21.410Z,16.75
2022-12-10T05:54:24.462Z,17.08
2022-12-10T05:55:27.607Z,16.08
2022-12-10T05:56:30.748Z,15.45
2022-12-10T05:57:33.839Z,16.77
2022-12-10T05:58:37.121Z,19.77
2022-12-10T05:59:40.368Z,19.42
2022-12-10T06:00:42.874Z,15.15
2022-12-10T06:01:45.919Z,18.55
2022-12-10T06:02:47.993Z,19.33
2022-12-10T06:03:53.209Z,19.25
2022-12-10T06:04:56.366Z,17.05
2022-12-10T06:05:58.460Z,15.65
2022-12-10T06:07:02.680Z,16.75
2022-12-10T06:08:08.482Z,16.95
2022-12-10T06:09:15.078Z,15.27
2022-12-10T06:10:17.343Z,17.30
2022-12-10T06:11:20.783Z,17.05
2022-12-10T06:12:22.958Z,17.08
2022-12-10T06:13:26.089Z,18.23
2022-12-10T06:14:29.083Z,17.05
2022-12-10T06:15:31.107Z,16.98
2022-12-10T06:16:34.084Z,16.85
2022-12-10T06:17:37.305Z,18.15
2022-12-10T06:18:40.429Z,16.88
2022-12-10T06:19:43.460Z,16.02
2022-12-10T06:20:47.464Z,17.58
2022-12-10T06:21:50.668Z,16.13
2022-12-10T06:22:53.049Z,19.88
2022-12-10T06:23:58.910Z,17.52
2022-12-10T06:25:00.896Z,17.95
2022-12-10T06:26:06.129Z,18.75
2022-12-10T06:27:09.136Z,17.55
2022-12-10T06:28:11.229Z,22.08
2022-12-10T06:29:14.248Z,16.85
2022-12-10T06:30:16.294Z,17.85
2022-12-10T06:31:19.880Z,18.48
2022-12-10T06:32:21.918Z,20.30
2022-12-10T06:33:24.954Z,19.23
2022-12-10T06:34:27.033Z,20.77
2022-12-10T06:35:30.250Z,21.80
2022-12-10T06:36:32.267Z,18.13
2022-12-10T06:37:35.289Z,19.73
2022-12-10T06:38:37.934Z,20.15
2022-12-10T06:39:42.327Z,18.15
2022-12-10T06:40:44.500Z,18.90
2022-12-10T06:41:47.563Z,19.65
2022-12-10T06:42:52.051Z,20.27
2022-12-10T06:43:59.131Z,19.30
2022-12-10T06:45:01.350Z,18.80
2022-12-10T06:46:07.385Z,21.17
2022-12-10T06:47:09.367Z,21.38
2022-12-10T06:48:12.438Z,19.55
2022-12-10T06:49:14.524Z,19.08
2022-12-10T06:50:17.678Z,17.77
2022-12-10T06:51:19.828Z,20.27
2022-12-10T06:52:22.913Z,20.45
2022-12-10T06:53:25.334Z,17.58
2022-12-10T06:54:28.445Z,19.40
2022-12-10T06:55:31.860Z,19.33
2022-12-10T06:56:34.829Z,18.60
2022-12-10T06:57:36.927Z,19.08
2022-12-10T06:58:41.510Z,19.67
2022-12-10T06:59:43.506Z,19.52
2022-12-10T07:00:46.613Z,18.63
2022-12-10T07:01:48.918Z,22.95
2022-12-10T07:02:52.077Z,19.75
2022-12-10T07:03:56.359Z,22.00
2022-12-10T07:04:59.345Z,21.75
2022-12-10T07:06:02.231Z,18.83
2022-12-10T07:07:09.358Z,20.48
2022-12-10T07:08:11.801Z,18.35
2022-12-10T07:09:14.867Z,19.73
2022-12-10T07:10:16.957Z,19.40
2022-12-10T07:11:23.653Z,18.13
2022-12-10T07:12:25.683Z,18.88
2022-12-10T07:13:30.914Z,19.38
2022-12-10T07:14:34.213Z,21.80
2022-12-10T07:15:36.164Z,18.45
2022-12-10T07:16:39.683Z,21.60
2022-12-10T07:17:41.721Z,21.17
2022-12-10T07:18:51.530Z,20.55
2022-12-10T07:19:54.830Z,21.15
2022-12-10T07:20:57.802Z,22.67
2022-12-10T07:21:59.767Z,20.17
2022-12-10T07:23:02.860Z,20.25
2022-12-10T07:24:07.222Z,20.90
2022-12-10T07:25:10.634Z,20.88
2022-12-10T07:26:12.748Z,21.67
2022-12-10T07:27:17.071Z,21.33
2022-12-10T07:28:19.068Z,19.98
2022-12-10T07:29:23.292Z,24.08
2022-12-10T07:30:25.875Z,19.60
2022-12-10T07:31:29.509Z,18.67
2022-12-10T07:32:31.587Z,22.02
2022-12-10T07:33:34.783Z,21.02
2022-12-10T07:34:36.764Z,17.70
2022-12-10T07:35:44.603Z,21.88
2022-12-10T07:36:51.888Z,18.35
2022-12-10T07:37:53.857Z,18.33
2022-12-10T07:38:57.229Z,19.95
2022-12-10T07:39:59.190Z,19.00
2022-12-10T07:41:05.539Z,18.88
2022-12-10T07:42:07.532Z,18.75
2022-12-10T07:43:15.633Z,17.95
2022-12-10T07:44:19.607Z,18.55
2022-12-10T07:45:22.607Z,18.58
2022-12-10T07:46:26.336Z,18.95
2022-12-10T07:47:29.392Z,15.80
2022-12-10T07:48:31.456Z,21.52
2022-12-10T07:49:34.985Z,18.42
2022-12-10T07:50:37.193Z,16.33
2022-12-10T07:51:40.783Z,16.50
2022-12-10T07:52:43.890Z,16.83
2022-12-10T07:53:46.198Z,15.55
2022-12-10T07:54:49.254Z,16.60
2022-12-10T07:55:51.473Z,17.05
2022-12-10T07:56:54.477Z,18.38
2022-12-10T07:57:56.492Z,16.30
2022-12-10T07:59:00.941Z,16.50
2022-12-10T08:00:03.696Z,17.80
2022-12-10T08:01:17.038Z,15.60
2022-12-10T08:02:19.226Z,17.23
2022-12-10T08:03:22.373Z,17.35
2022-12-10T08:04:25.570Z,18.58
2022-12-10T08:05:28.525Z,15.27
2022-12-10T08:06:30.587Z,18.48
2022-12-10T08:07:34.961Z,16.33
2022-12-10T08:08:38.259Z,15.75
2022-12-10T08:09:41.346Z,16.83
2022-12-10T08:10:43.414Z,16.60
2022-12-10T08:11:46.490Z,15.93
2022-12-10T08:12:49.532Z,18.55
2022-12-10T08:13:56.607Z,16.05
2022-12-10T08:15:03.357Z,19.23
2022-12-10T08:16:07.703Z,18.45
2022-12-10T08:17:10.828Z,17.65
2022-12-10T08:18:12.779Z,19.77
2022-12-10T08:19:21.403Z,17.08
2022-12-10T08:20:25.571Z,16.45
2022-12-10T08:21:30.456Z,18.17
2022-12-10T08:22:34.026Z,17.77
2022-12-10T08:23:37.943Z,17.63
2022-12-10T08:24:41.008Z,17.45
2022-12-10T08:25:43.100Z,20.58
2022-12-10T08:26:46.232Z,16.17
2022-12-10T08:27:48.272Z,16.38
2022-12-10T08:28:52.192Z,16.42
2022-12-10T08:29:54.181Z,15.95
2022-12-10T08:30:58.559Z,16.08
2022-12-10T08:32:01.637Z,16.05
2022-12-10T08:33:03.881Z,15.85
2022-12-10T08:34:07.366Z,17.08
2022-12-10T08:35:09.738Z,16.73
2022-12-10T08:36:15.674Z,18.85
2022-12-10T08:37:18.800Z,18.63
2022-12-10T08:38:20.866Z,16.60
2022-12-10T08:39:23.978Z,17.92
2022-12-10T08:40:25.960Z,18.05
2022-12-10T08:41:29.084Z,19.48
2022-12-10T08:42:31.070Z,18.02
2022-12-10T08:43:34.073Z,20.83
2022-12-10T08:44:37.304Z,20.88
2022-12-10T08:45:39.283Z,17.80
2022-12-10T08:46:43.854Z,18.00
2022-12-10T08:47:45.865Z,19.13
2022-12-10T08:48:48.934Z,19.33
2022-12-10T08:49:51.932Z,21.40
2022-12-10T08:50:55.670Z,22.90
2022-12-10T08:51:58.689Z,19.98
2022-12-10T08:53:01.210Z,20.70
2022-12-10T08:54:04.686Z,20.65
2022-12-10T08:55:07.534Z,22.13
2022-12-10T08:56:10.582Z,22.50
2022-12-10T08:57:12.899Z,25.08
2022-12-10T08:58:15.904Z,23.40
2022-12-10T08:59:19.225Z,22.52
2022-12-10T09:00:21.475Z,24.95
2022-12-10T09:01:24.696Z,25.52
2022-12-10T09:02:28.207Z,21.80
2022-12-10T09:03:31.244Z,22.83
2022-12-10T09:04:33.200Z,25.30
2022-12-10T09:05:36.860Z,23.48
2022-12-10T09:06:38.900Z,22.38
2022-12-10T09:07:41.962Z,21.05
2022-12-10T09:08:44.048Z,19.55
2022-12-10T09:09:47.056Z,21.77
2022-12-10T09:10:50.096Z,20.73
2022-12-10T09:11:53.140Z,18.92
2022-12-10T09:12:59.907Z,18.77
2022-12-10T09:14:06.134Z,20.92
2022-12-10T09:15:10.820Z,22.35
2022-12-10T09:16:14.533Z,18.35
2022-12-10T09:17:17.696Z,16.92
2022-12-10T09:18:21.067Z,23.35
2022-12-10T09:19:24.179Z,19.95
2022-12-10T09:20:26.263Z,21.17
2022-12-10T09:21:30.706Z,22.25
2022-12-10T09:22:33.190Z,22.83
2022-12-10T09:23:36.705Z,21.60
2022-12-10T09:24:39.711Z,22.77
2022-12-10T09:25:41.765Z,21.90
2022-12-10T09:26:44.717Z,19.48
2022-12-10T09:27:48.078Z,21.40
2022-12-10T09:28:51.396Z,18.02
2022-12-10T09:29:53.477Z,19.55
2022-12-10T09:31:00.178Z,21.70
2022-12-10T09:32:03.590Z,22.25
2022-12-10T09:33:06.762Z,20.88
2022-12-10T09:34:11.200Z,24.33
2022-12-10T09:35:13.182Z,20.38
2022-12-10T09:36:16.363Z,21.70
2022-12-10T09:37:18.382Z,23.60
2022-12-10T09:38:21.733Z,22.20
2022-12-10T09:39:23.805Z,20.80
2022-12-10T09:40:36.430Z,23.45
2022-12-10T09:42:08.040Z,25.95
2022-12-10T09:43:19.751Z,20.92
2022-12-10T09:44:34.058Z,23.10
2022-12-10T09:45:45.970Z,23.17
2022-12-10T09:46:53.055Z,21.48
2022-12-10T09:48:02.191Z,24.33
2022-12-10T09:49:21.374Z,23.92
2022-12-10T09:50:31.575Z,24.95
2022-12-10T09:51:38.095Z,25.55
2022-12-10T09:52:44.436Z,25.88
2022-12-10T09:53:49.396Z,23.85
2022-12-10T09:54:56.905Z,24.67
2022-12-10T09:55:59.690Z,26.52
2022-12-10T09:57:05.665Z,24.77
2022-12-10T09:58:16.013Z,24.05
2022-12-10T09:59:22.664Z,24.85
2022-12-10T10:00:32.448Z,25.15
2022-12-10T10:01:36.073Z,19.10
2022-12-10T10:02:39.865Z,23.13
2022-12-10T10:03:46.961Z,26.98
2022-12-10T10:04:55.043Z,24.75
2022-12-10T10:05:58.515Z,27.25
2022-12-10T10:07:01.275Z,28.30
2022-12-10T10:08:07.495Z,26.70
2022-12-10T10:09:13.790Z,28.00
2022-12-10T10:10:24.718Z,25.75
2022-12-10T10:11:31.391Z,23.33
2022-12-10T10:12:34.930Z,25.27
2022-12-10T10:13:40.687Z,24.67
2022-12-10T10:14:44.359Z,26.33
2022-12-10T10:15:47.682Z,24.23
2022-12-10T10:16:54.479Z,24.60
2022-12-10T10:18:02.662Z,26.92
2022-12-10T10:19:08.277Z,27.35
2022-12-10T10:20:12.237Z,24.45
2022-12-10T10:21:22.696Z,26.92
2022-12-10T10:22:27.467Z,22.98
2022-12-10T10:23:30.606Z,23.08
2022-12-10T10:24:36.679Z,22.30
2022-12-10T10:25:40.675Z,23.75
2022-12-10T10:26:44.436Z,25.15
2022-12-10T10:27:46.629Z,23.15
2022-12-10T10:28:54.809Z,26.85
2022-12-10T10:30:00.944Z,24.15
2022-12-10T10:31:04.100Z,23.38
2022-12-10T10:32:19.906Z,23.60
2022-12-10T10:33:22.040Z,26.67
2022-12-10T10:34:25.545Z,22.95
2022-12-10T10:35:32.086Z,24.45
2022-12-10T10:36:37.473Z,23.60
2022-12-10T10:37:42.238Z,24.20
2022-12-10T10:38:50.086Z,24.00
2022-12-10T10:39:52.700Z,24.10
2022-12-10T10:40:58.627Z,24.27
2022-12-10T10:42:09.604Z,23.27
2022-12-10T10:43:20.432Z,24.85
2022-12-10T10:44:24.341Z,24.25
2022-12-10T10:45:37.546Z,23.30
2022-12-10T10:46:41.277Z,25.50
2022-12-10T10:47:44.446Z,22.23
2022-12-10T10:48:47.571Z,23.70
2022-12-10T10:49:49.563Z,23.00
2022-12-10T10:50:56.098Z,25.45
2022-12-10T10:52:00.799Z,22.23
2022-12-10T10:53:03.793Z,23.75
2022-12-10T10:54:08.511Z,23.55
2022-12-10T10:55:33.149Z,24.08
2022-12-10T10:56:43.112Z,20.42
2022-12-10T10:57:45.187Z,22.25
2022-12-10T10:58:54.527Z,24.95
2022-12-10T11:00:09.641Z,20.35
2022-12-10T11:01:13.560Z,19.33
2022-12-10T11:02:23.026Z,21.15
2022-12-10T11:03:26.163Z,21.85
2022-12-10T11:04:33.491Z,23.48
2022-12-10T11:05:37.356Z,22.88
2022-12-10T11:06:41.286Z,26.35
2022-12-10T11:07:44.727Z,22.02
2022-12-10T11:08:48.144Z,22.73
2022-12-10T11:09:51.791Z,23.33
2022-12-10T11:11:02.780Z,21.70
2022-12-10T11:12:08.409Z,21.23
2022-12-10T11:13:23.571Z,20.42
2022-12-10T11:14:29.093Z,24.23
2022-12-10T11:15:34.913Z,21.25
2022-12-10T11:16:37.978Z,22.17
2022-12-10T11:17:47.874Z,20.25
2022-12-10T11:18:58.697Z,21.23
2022-12-10T11:20:16.341Z,20.08
2022-12-10T11:21:22.765Z,20.27
2022-12-10T11:22:28.549Z,21.98
2022-12-10T11:23:33.067Z,21.02
2022-12-10T11:24:35.071Z,20.55
2022-12-10T11:25:49.967Z,21.85
2022-12-10T11:27:04.147Z,19.85
2022-12-10T11:28:24.107Z,20.58
2022-12-10T11:29:43.170Z,20.53
2022-12-10T11:30:55.126Z,24.13
2022-12-10T11:32:14.687Z,20.02
2022-12-10T11:33:24.918Z,21.92
2022-12-10T11:34:43.754Z,21.63
2022-12-10T11:35:59.221Z,22.23
2022-12-10T11:37:09.505Z,18.95
2022-12-10T11:38:23.678Z,18.77
2022-12-10T11:39:52.258Z,18.40
2022-12-10T11:41:04.103Z,19.02
2022-12-10T11:42:15.058Z,17.65
2022-12-10T11:43:33.524Z,20.48
2022-12-10T11:44:43.391Z,18.67
2022-12-10T11:46:00.425Z,18.10
2022-12-10T11:47:26.105Z,18.08
2022-12-10T11:48:42.557Z,16.58
2022-12-10T11:49:55.561Z,18.23
2022-12-10T11:51:03.546Z,18.58
2022-12-10T11:52:18.709Z,18.27
2022-12-10T11:53:52.413Z,21.00
2022-12-10T11:55:07.553Z,16.95
2022-12-10T11:56:24.111Z,17.08
2022-12-10T11:57:39.819Z,18.05
2022-12-10T11:58:57.466Z,19.58
2022-12-10T12:00:07.557Z,20.40
2022-12-10T12:01:18.858Z,18.10
2022-12-10T12:02:49.066Z,21.25
2022-12-10T12:04:15.965Z,17.25
2022-12-10T12:05:33.048Z,19.95
2022-12-10T12:06:59.766Z,19.05
2022-12-10T12:08:11.311Z,18.30
2022-12-10T12:09:30.855Z,18.33
2022-12-10T12:10:55.874Z,17.13
2022-12-10T12:12:10.976Z,19.02
2022-12-10T12:13:17.961Z,18.35
2022-12-10T12:14:26.723Z,17.33
2022-12-10T12:15:33.933Z,20.17
2022-12-10T12:16:41.551Z,20.45
2022-12-10T12:17:49.193Z,19.40
2022-12-10T12:18:57.796Z,19.05
2022-12-10T12:20:04.397Z,22.40
2022-12-10T12:21:12.203Z,19.55
2022-12-10T12:22:16.791Z,18.75
2022-12-10T12:23:26.285Z,19.05
2022-12-10T12:24:37.452Z,19.92
2022-12-10T12:25:44.146Z,17.95
2022-12-10T12:26:54.794Z,18.02
2022-12-10T12:28:02.411Z,16.85
2022-12-10T12:29:17.366Z,20.83
2022-12-10T12:30:21.504Z,18.92
2022-12-10T12:31:31.838Z,19.45
2022-12-10T12:32:47.146Z,19.27
2022-12-10T12:33:55.875Z,16.95
2022-12-10T12:35:03.245Z,16.88
2022-12-10T12:36:12.139Z,17.17
2022-12-10T12:37:18.995Z,18.67
2022-12-10T12:38:29.508Z,18.67
2022-12-10T12:39:41.085Z,15.63
2022-12-10T12:40:50.457Z,19.10
2022-12-10T12:42:03.536Z,18.92
2022-12-10T12:43:14.688Z,17.70
2022-12-10T12:45:34.876Z,18.25
2022-12-10T12:46:42.995Z,16.25
2022-12-10T12:47:54.412Z,16.05
2022-12-10T12:49:11.874Z,19.52
2022-12-10T12:50:26.910Z,16.45
2022-12-10T12:51:35.659Z,19.38
2022-12-10T12:52:47.734Z,18.52
2022-12-10T12:53:49.933Z,16.48
2022-12-10T12:54:56.074Z,18.48
2022-12-10T12:56:04.286Z,19.20
2022-12-10T12:57:15.257Z,18.60
2022-12-10T12:58:27.605Z,22.05
2022-12-10T12:59:51.977Z,20.25
2022-12-10T13:00:58.434Z,18.10
2022-12-10T13:02:09.040Z,18.63
2022-12-10T13:03:29.538Z,23.02
2022-12-10T13:04:32.560Z,17.77
2022-12-10T13:05:38.610Z,19.02
2022-12-10T13:06:45.331Z,19.65
2022-12-10T13:08:28.086Z,20.05
2022-12-10T13:09:32.178Z,19.02
2022-12-10T13:10:48.130Z,21.65
2022-12-10T13:12:20.187Z,21.73
2022-12-10T13:13:30.925Z,20.55
2022-12-10T13:14:35.813Z,18.27
2022-12-10T13:15:40.508Z,18.73
2022-12-10T13:17:00.406Z,19.35
2022-12-10T13:18:21.604Z,18.50
2022-12-10T13:19:30.581Z,17.02
2022-12-10T13:20:42.189Z,21.45
2022-12-10T13:22:03.046Z,17.83
2022-12-10T13:23:26.963Z,19.67
2022-12-10T13:25:14.784Z,22.13
2022-12-10T13:26:30.024Z,17.05
2022-12-10T13:27:34.875Z,19.95
2022-12-10T13:28:51.828Z,18.27
2022-12-10T13:29:57.884Z,18.83
2022-12-10T13:31:20.392Z,20.10
2022-12-10T13:32:25.978Z,17.48
2022-12-10T13:33:47.544Z,20.23
2022-12-10T13:35:33.778Z,19.45
2022-12-10T13:36:58.567Z,21.88
2022-12-10T13:38:20.946Z,21.27
2022-12-10T13:39:34.906Z,20.85
2022-12-10T13:40:58.855Z,22.77
2022-12-10T13:42:50.275Z,20.48
2022-12-10T13:44:12.978Z,22.85
2022-12-10T13:45:39.989Z,18.85
2022-12-10T13:46:59.393Z,21.33
2022-12-10T13:48:28.249Z,21.02
2022-12-10T13:49:35.515Z,25.08
2022-12-10T13:50:46.152Z,21.75
2022-12-10T13:51:57.470Z,22.17
2022-12-10T13:53:10.266Z,20.40
2022-12-10T13:54:38.864Z,23.60
2022-12-10T13:56:01.919Z,22.70
2022-12-10T13:57:16.932Z,19.45
2022-12-10T13:58:37.316Z,23.10
2022-12-10T13:59:49.349Z,19.20
2022-12-10T14:01:03.911Z,21.88
2022-12-10T14:02:29.751Z,22.65
2022-12-10T14:04:03.448Z,20.70
2022-12-10T14:05:29.389Z,21.77
2022-12-10T14:06:37.036Z,20.98
2022-12-10T14:07:40.858Z,18.02
2022-12-10T14:08:54.989Z,19.95
2022-12-10T14:10:00.377Z,22.33
2022-12-10T14:11:06.449Z,21.75
2022-12-10T14:12:16.890Z,21.35
2022-12-10T14:13:23.864Z,23.98
2022-12-10T14:14:32.706Z,21.00
2022-12-10T14:15:39.480Z,19.50
2022-12-10T14:16:42.343Z,24.17
2022-12-10T14:17:46.613Z,22.20
2022-12-10T14:18:55.060Z,23.88
2022-12-10T14:19:58.258Z,24.20
2022-12-10T14:21:06.046Z,22.92
2022-12-10T14:22:10.468Z,23.88